This is the latest recevied weather packets stored in our database for station/object AJ5AG. If no packets are shown the sender has not sent any weather packets the latest 10 day(s).
| Time | Temp. | Humidity | Pressure | Rain* | Wind** | Luminosity | Snow |
|---|---|---|---|---|---|---|---|
| 1777572723 | 20° C | 95% | 1014.7 hPa | 0 mm | - | 36 W/m² | - |
| 1777571208 | 20° C | 95% | 1014.9 hPa | 0 mm | - | 47 W/m² | - |
| 1777570297 | 20.56° C | 95% | 1015.2 hPa | 1.78 mm | - | 37 W/m² | - |
| 1777569384 | 20.56° C | 94% | 1015.1 hPa | 0 mm | - | 23 W/m² | - |
| 1777567869 | 21.11° C | 94% | 1014.7 hPa | 0 mm | - | 35 W/m² | - |
| 1777566960 | 20.56° C | 94% | 1014.2 hPa | 0 mm | - | 44 W/m² | - |
| 1777566355 | 21.11° C | 94% | 1014.1 hPa | 0 mm | - | 43 W/m² | - |
| 1777565140 | 21.11° C | 94% | 1014 hPa | 0 mm | - | 90 W/m² | - |
| 1777563320 | 20.56° C | 97% | 1014.2 hPa | 0 mm | - | 76 W/m² | - |
| 1777563017 | 20.56° C | 97% | 1014.2 hPa | 0 mm | - | 94 W/m² | - |
| 1777562412 | 20.56° C | 97% | 1014.3 hPa | 0 mm | - | 73 W/m² | - |
| 1777561502 | 20.56° C | 97% | 1014.5 hPa | 0 mm | - | 59 W/m² | - |
| 1777391710 | 28.89° C | 70% | 1016.6 hPa | 0 mm | - | 376 W/m² | - |
| 1777390496 | 27.78° C | 74% | 1016.5 hPa | 0 mm | - | 342 W/m² | - |
| 1777389586 | 27.78° C | 76% | 1016.5 hPa | 0 mm | - | 206 W/m² | - |
| 1777389282 | 27.22° C | 78% | 1016.3 hPa | 0 mm | - | 348 W/m² | - |
| 1777388677 | 27.22° C | 78% | 1016.5 hPa | 0 mm | - | 309 W/m² | - |
| 1777386554 | 25.56° C | 84% | 1016 hPa | 0 mm | - | 157 W/m² | - |
| 1777385949 | 25.56° C | 86% | 1016.1 hPa | 0 mm | - | 133 W/m² | - |
| 1777385645 | 25.56° C | 86% | 1016 hPa | 0 mm | - | 126 W/m² | - |
| 1777385343 | 25.56° C | 87% | 1016 hPa | 0 mm | - | 126 W/m² | - |
| 1777383828 | 25° C | 90% | 1016 hPa | 0 mm | - | 107 W/m² | - |
| 1777383524 | 25° C | 90% | 1016.1 hPa | 0 mm | - | 99 W/m² | - |
| 1777383221 | 25° C | 91% | 1016.1 hPa | 0 mm | - | 86 W/m² | - |
| 1777382919 | 25° C | 91% | 1016.1 hPa | 0 mm | - | 82 W/m² | - |
* Rain latest hour (hover to see other rain measurements)
** Current wind speed in m/s (hover to see current wind gust speed)